Main page
METAR-TAF:

METAR-TAF

Airports :

Fort Liard Airport

Fort Liard, Northwest Territories, Canada

latitude: 60-14N, longitude: 123-29W, elevation: 215 m

Current weather observation

The report was made 13 hours and 17 minutes ago, at 22:00 UTC
Wind 13 kt from the Southwest with gusts up to 24 kt, varying between South/Southwest and West
Temperature 29°C
Humidity 31%
Pressure 1009 hPa
Visibility: 24.1 km
Few clouds at a height of 9000 ft

METAR: CYJF 162200Z 23013G24KT 200V260 15SM FEW090 29/10 A2980 RMK CU1 CU TR LAST STFD OBS/NXT 171400Z SLP093 DENSITY ALT 2600FT

Time: 05:17 (11:17 UTC)


TAF: missing

Weather observations and forecasts of more than 4000 airports (METAR and TAF reports).

The available stations are represented by yellow and red dots on the map.

Hover mouse over dot to see the name of the station.

Then click to see weather observations and forecasts.

To change the map : click on the green buttons with a black cross to zoom in, on the green button with a dash to zoom out, or on the green arrows for adjacent maps.


METAR-TAF: